sensor_id;sensor_type;location;lat;lon;timestamp;P1;durP1;ratioP1;P2;durP2;ratioP2
34521;SDS011;25561;48.888;8.736;2023-04-25T05:31:45;7.32;;;4.68;;
34521;SDS011;25561;48.888;8.736;2023-04-25T05:34:48;10.35;;;6.00;;
34521;SDS011;25561;48.888;8.736;2023-04-25T05:37:50;8.88;;;5.97;;
34521;SDS011;25561;48.888;8.736;2023-04-25T05:40:52;6.53;;;5.13;;
34521;SDS011;25561;48.888;8.736;2023-04-25T05:43:54;10.52;;;5.57;;
34521;SDS011;25561;48.888;8.736;2023-04-25T05:46:58;9.13;;;5.63;;
34521;SDS011;25561;48.888;8.736;2023-04-25T05:50:00;15.15;;;5.07;;
34521;SDS011;25561;48.888;8.736;2023-04-25T05:53:03;9.73;;;4.55;;
34521;SDS011;25561;48.888;8.736;2023-04-25T05:56:08;10.60;;;4.55;;
34521;SDS011;25561;48.888;8.736;2023-04-25T05:59:09;6.28;;;4.38;;
34521;SDS011;25561;48.888;8.736;2023-04-25T06:02:11;8.07;;;4.70;;
34521;SDS011;25561;48.888;8.736;2023-04-25T06:05:13;7.22;;;4.80;;
34521;SDS011;25561;48.888;8.736;2023-04-25T06:08:16;7.93;;;5.43;;
34521;SDS011;25561;48.888;8.736;2023-04-25T06:11:18;7.78;;;5.00;;
34521;SDS011;25561;48.888;8.736;2023-04-25T06:48:59;15.43;;;8.93;;
34521;SDS011;25561;48.888;8.736;2023-04-25T06:52:02;10.50;;;7.05;;
34521;SDS011;25561;48.888;8.736;2023-04-25T06:55:04;9.75;;;5.72;;
34521;SDS011;25561;48.888;8.736;2023-04-25T06:58:08;9.60;;;4.88;;
34521;SDS011;25561;48.888;8.736;2023-04-25T07:01:10;12.55;;;5.57;;
34521;SDS011;25561;48.888;8.736;2023-04-25T07:04:13;10.82;;;6.25;;
34521;SDS011;25561;48.888;8.736;2023-04-25T07:07:15;8.35;;;6.03;;
34521;SDS011;25561;48.888;8.736;2023-04-25T07:10:19;8.25;;;6.00;;
34521;SDS011;25561;48.888;8.736;2023-04-25T07:13:23;8.85;;;5.95;;
34521;SDS011;25561;48.888;8.736;2023-04-25T07:16:26;12.48;;;5.90;;
34521;SDS011;25561;48.888;8.736;2023-04-25T07:19:30;16.67;;;7.67;;
34521;SDS011;25561;48.888;8.736;2023-04-25T07:22:32;16.33;;;7.18;;
34521;SDS011;25561;48.888;8.736;2023-04-25T07:25:35;12.52;;;6.72;;
34521;SDS011;25561;48.888;8.736;2023-04-25T07:28:39;10.50;;;6.87;;
34521;SDS011;25561;48.888;8.736;2023-04-25T07:31:41;24.00;;;14.38;;
34521;SDS011;25561;48.888;8.736;2023-04-25T07:34:43;12.75;;;8.43;;
34521;SDS011;25561;48.888;8.736;2023-04-25T07:37:45;28.55;;;17.40;;
34521;SDS011;25561;48.888;8.736;2023-04-25T07:40:48;13.82;;;7.25;;
34521;SDS011;25561;48.888;8.736;2023-04-25T07:43:51;15.63;;;10.10;;
34521;SDS011;25561;48.888;8.736;2023-04-25T07:46:58;13.40;;;7.75;;
34521;SDS011;25561;48.888;8.736;2023-04-25T07:50:03;12.50;;;7.80;;
34521;SDS011;25561;48.888;8.736;2023-04-25T07:53:05;12.75;;;7.63;;
34521;SDS011;25561;48.888;8.736;2023-04-25T07:56:07;10.82;;;6.68;;
34521;SDS011;25561;48.888;8.736;2023-04-25T07:59:11;14.07;;;6.53;;
34521;SDS011;25561;48.888;8.736;2023-04-25T08:02:14;8.85;;;6.47;;
34521;SDS011;25561;48.888;8.736;2023-04-25T08:05:16;9.93;;;5.88;;
34521;SDS011;25561;48.888;8.736;2023-04-25T08:08:22;10.85;;;5.35;;
34521;SDS011;25561;48.888;8.736;2023-04-25T08:11:26;7.28;;;5.38;;
34521;SDS011;25561;48.888;8.736;2023-04-25T08:14:28;9.35;;;5.47;;
34521;SDS011;25561;48.888;8.736;2023-04-25T08:17:33;9.43;;;6.22;;
34521;SDS011;25561;48.888;8.736;2023-04-25T08:20:35;13.07;;;6.13;;
34521;SDS011;25561;48.888;8.736;2023-04-25T08:23:38;8.30;;;6.07;;
34521;SDS011;25561;48.888;8.736;2023-04-25T08:26:41;10.57;;;6.20;;
34521;SDS011;25561;48.888;8.736;2023-04-25T08:29:45;11.57;;;7.38;;
34521;SDS011;25561;48.888;8.736;2023-04-25T08:32:48;8.77;;;6.30;;
34521;SDS011;25561;48.888;8.736;2023-04-25T08:35:51;11.48;;;6.15;;
34521;SDS011;25561;48.888;8.736;2023-04-25T08:38:54;11.20;;;6.38;;
34521;SDS011;25561;48.888;8.736;2023-04-25T08:42:00;9.05;;;6.18;;
34521;SDS011;25561;48.888;8.736;2023-04-25T08:45:09;7.07;;;5.70;;
34521;SDS011;25561;48.888;8.736;2023-04-25T08:48:12;8.25;;;6.05;;
34521;SDS011;25561;48.888;8.736;2023-04-25T08:51:26;8.93;;;5.00;;
34521;SDS011;25561;48.888;8.736;2023-04-25T08:54:32;8.02;;;5.07;;
34521;SDS011;25561;48.888;8.736;2023-04-25T08:57:39;7.43;;;4.13;;
34521;SDS011;25561;48.888;8.736;2023-04-25T09:00:49;7.18;;;5.25;;
34521;SDS011;25561;48.888;8.736;2023-04-25T09:03:52;8.05;;;4.90;;
34521;SDS011;25561;48.888;8.736;2023-04-25T09:06:55;6.47;;;4.53;;
34521;SDS011;25561;48.888;8.736;2023-04-25T09:10:00;6.85;;;4.68;;
34521;SDS011;25561;48.888;8.736;2023-04-25T09:16:07;13.02;;;8.05;;
34521;SDS011;25561;48.888;8.736;2023-04-25T09:19:20;18.45;;;9.80;;
34521;SDS011;25561;48.888;8.736;2023-04-25T09:22:40;11.45;;;6.93;;
34521;SDS011;25561;48.888;8.736;2023-04-25T09:25:44;17.48;;;10.35;;
34521;SDS011;25561;48.888;8.736;2023-04-25T09:28:48;25.60;;;11.43;;
34521;SDS011;25561;48.888;8.736;2023-04-25T09:31:50;7.10;;;5.05;;
34521;SDS011;25561;48.888;8.736;2023-04-25T09:34:53;6.63;;;4.28;;
34521;SDS011;25561;48.888;8.736;2023-04-25T09:37:56;5.82;;;3.58;;
34521;SDS011;25561;48.888;8.736;2023-04-25T09:40:58;5.05;;;3.20;;
34521;SDS011;25561;48.888;8.736;2023-04-25T09:44:02;3.97;;;2.20;;
34521;SDS011;25561;48.888;8.736;2023-04-25T09:47:07;6.13;;;2.67;;
34521;SDS011;25561;48.888;8.736;2023-04-25T09:50:14;4.60;;;1.83;;
34521;SDS011;25561;48.888;8.736;2023-04-25T09:53:19;2.58;;;1.88;;
34521;SDS011;25561;48.888;8.736;2023-04-25T09:56:22;3.50;;;1.48;;
34521;SDS011;25561;48.888;8.736;2023-04-25T09:59:26;3.30;;;1.50;;
34521;SDS011;25561;48.888;8.736;2023-04-25T10:02:34;2.92;;;1.80;;
34521;SDS011;25561;48.888;8.736;2023-04-25T10:05:38;6.57;;;1.85;;
34521;SDS011;25561;48.888;8.736;2023-04-25T10:08:42;6.90;;;2.10;;
34521;SDS011;25561;48.888;8.736;2023-04-25T10:11:46;4.22;;;2.40;;
34521;SDS011;25561;48.888;8.736;2023-04-25T10:14:52;3.85;;;2.70;;
34521;SDS011;25561;48.888;8.736;2023-04-25T10:17:55;5.82;;;4.30;;
34521;SDS011;25561;48.888;8.736;2023-04-25T10:21:00;8.80;;;5.50;;
34521;SDS011;25561;48.888;8.736;2023-04-25T10:24:03;11.13;;;7.30;;
34521;SDS011;25561;48.888;8.736;2023-04-25T10:27:05;10.18;;;6.65;;
34521;SDS011;25561;48.888;8.736;2023-04-25T10:30:09;16.10;;;7.82;;
34521;SDS011;25561;48.888;8.736;2023-04-25T10:33:17;12.88;;;7.30;;
34521;SDS011;25561;48.888;8.736;2023-04-25T10:36:22;13.07;;;8.85;;
34521;SDS011;25561;48.888;8.736;2023-04-25T10:39:26;13.23;;;9.25;;
34521;SDS011;25561;48.888;8.736;2023-04-25T10:42:28;13.40;;;9.50;;
34521;SDS011;25561;48.888;8.736;2023-04-25T10:45:31;12.02;;;8.60;;
34521;SDS011;25561;48.888;8.736;2023-04-25T10:48:53;14.27;;;7.95;;
34521;SDS011;25561;48.888;8.736;2023-04-25T10:55:24;11.35;;;7.13;;
34521;SDS011;25561;48.888;8.736;2023-04-25T10:58:26;13.63;;;8.05;;
34521;SDS011;25561;48.888;8.736;2023-04-25T11:01:29;15.52;;;9.80;;
34521;SDS011;25561;48.888;8.736;2023-04-25T11:04:43;16.95;;;10.23;;
34521;SDS011;25561;48.888;8.736;2023-04-25T11:11:01;24.38;;;12.27;;
34521;SDS011;25561;48.888;8.736;2023-04-25T11:14:03;24.95;;;13.10;;
34521;SDS011;25561;48.888;8.736;2023-04-25T11:17:05;22.67;;;10.18;;
34521;SDS011;25561;48.888;8.736;2023-04-25T11:20:07;15.93;;;9.90;;
34521;SDS011;25561;48.888;8.736;2023-04-25T11:23:12;17.48;;;9.88;;
34521;SDS011;25561;48.888;8.736;2023-04-25T11:26:14;20.15;;;10.70;;
34521;SDS011;25561;48.888;8.736;2023-04-25T11:29:16;15.07;;;8.65;;
34521;SDS011;25561;48.888;8.736;2023-04-25T11:32:18;12.65;;;8.07;;
34521;SDS011;25561;48.888;8.736;2023-04-25T11:35:21;15.40;;;9.23;;
34521;SDS011;25561;48.888;8.736;2023-04-25T11:38:25;16.70;;;8.75;;
34521;SDS011;25561;48.888;8.736;2023-04-25T11:41:30;12.65;;;7.40;;
34521;SDS011;25561;48.888;8.736;2023-04-25T11:44:32;12.80;;;7.53;;
34521;SDS011;25561;48.888;8.736;2023-04-25T11:47:34;11.52;;;4.82;;
34521;SDS011;25561;48.888;8.736;2023-04-25T11:50:41;9.27;;;5.30;;
34521;SDS011;25561;48.888;8.736;2023-04-25T11:53:46;7.80;;;4.82;;
34521;SDS011;25561;48.888;8.736;2023-04-25T11:56:49;6.93;;;4.53;;
34521;SDS011;25561;48.888;8.736;2023-04-25T11:59:51;5.32;;;4.00;;
34521;SDS011;25561;48.888;8.736;2023-04-25T12:02:54;6.18;;;3.33;;
34521;SDS011;25561;48.888;8.736;2023-04-25T12:06:02;2.22;;;1.65;;
34521;SDS011;25561;48.888;8.736;2023-04-25T12:09:10;4.70;;;2.38;;
34521;SDS011;25561;48.888;8.736;2023-04-25T12:12:13;4.90;;;2.70;;
34521;SDS011;25561;48.888;8.736;2023-04-25T12:18:22;5.68;;;3.33;;
34521;SDS011;25561;48.888;8.736;2023-04-25T12:21:28;5.88;;;3.15;;
34521;SDS011;25561;48.888;8.736;2023-04-25T12:24:32;6.78;;;3.58;;
34521;SDS011;25561;48.888;8.736;2023-04-25T12:27:39;10.82;;;4.68;;
34521;SDS011;25561;48.888;8.736;2023-04-25T12:30:59;9.85;;;5.15;;
34521;SDS011;25561;48.888;8.736;2023-04-25T12:34:08;12.27;;;6.30;;
34521;SDS011;25561;48.888;8.736;2023-04-25T12:37:10;12.35;;;6.03;;
34521;SDS011;25561;48.888;8.736;2023-04-25T12:40:12;9.15;;;5.47;;
34521;SDS011;25561;48.888;8.736;2023-04-25T12:43:14;12.60;;;7.40;;
34521;SDS011;25561;48.888;8.736;2023-04-25T12:46:16;8.45;;;5.95;;
34521;SDS011;25561;48.888;8.736;2023-04-25T12:49:18;11.88;;;8.13;;
34521;SDS011;25561;48.888;8.736;2023-04-25T12:52:20;15.68;;;8.77;;
34521;SDS011;25561;48.888;8.736;2023-04-25T12:55:22;15.05;;;9.32;;
34521;SDS011;25561;48.888;8.736;2023-04-25T12:58:24;9.65;;;6.93;;
34521;SDS011;25561;48.888;8.736;2023-04-25T13:01:26;12.50;;;8.10;;
34521;SDS011;25561;48.888;8.736;2023-04-25T13:04:28;10.40;;;6.75;;
34521;SDS011;25561;48.888;8.736;2023-04-25T13:07:30;13.20;;;9.32;;
34521;SDS011;25561;48.888;8.736;2023-04-25T13:10:34;15.60;;;8.98;;
34521;SDS011;25561;48.888;8.736;2023-04-25T13:13:37;16.70;;;8.93;;
34521;SDS011;25561;48.888;8.736;2023-04-25T13:16:40;11.70;;;7.95;;
34521;SDS011;25561;48.888;8.736;2023-04-25T13:19:42;12.93;;;7.35;;
34521;SDS011;25561;48.888;8.736;2023-04-25T13:22:44;14.85;;;7.07;;
34521;SDS011;25561;48.888;8.736;2023-04-25T13:25:46;12.82;;;7.18;;
34521;SDS011;25561;48.888;8.736;2023-04-25T13:28:48;12.20;;;6.55;;
34521;SDS011;25561;48.888;8.736;2023-04-25T13:31:50;12.13;;;6.97;;
34521;SDS011;25561;48.888;8.736;2023-04-25T13:34:52;10.55;;;6.30;;
34521;SDS011;25561;48.888;8.736;2023-04-25T13:37:54;15.40;;;6.40;;
34521;SDS011;25561;48.888;8.736;2023-04-25T13:40:56;10.25;;;5.70;;
34521;SDS011;25561;48.888;8.736;2023-04-25T13:43:58;13.57;;;6.53;;
34521;SDS011;25561;48.888;8.736;2023-04-25T13:47:00;9.35;;;5.55;;
34521;SDS011;25561;48.888;8.736;2023-04-25T13:50:03;12.52;;;6.07;;
34521;SDS011;25561;48.888;8.736;2023-04-25T13:53:07;19.73;;;6.40;;
34521;SDS011;25561;48.888;8.736;2023-04-25T13:56:08;7.90;;;5.22;;
34521;SDS011;25561;48.888;8.736;2023-04-25T13:59:12;7.72;;;4.93;;
34521;SDS011;25561;48.888;8.736;2023-04-25T14:02:14;8.68;;;5.32;;
34521;SDS011;25561;48.888;8.736;2023-04-25T14:05:16;11.75;;;5.75;;
34521;SDS011;25561;48.888;8.736;2023-04-25T14:08:18;10.43;;;5.38;;
34521;SDS011;25561;48.888;8.736;2023-04-25T14:11:20;9.43;;;5.18;;
34521;SDS011;25561;48.888;8.736;2023-04-25T14:14:22;8.23;;;5.20;;
34521;SDS011;25561;48.888;8.736;2023-04-25T14:17:24;7.93;;;4.82;;
34521;SDS011;25561;48.888;8.736;2023-04-25T14:20:26;9.15;;;4.38;;
34521;SDS011;25561;48.888;8.736;2023-04-25T14:23:28;6.18;;;4.13;;
34521;SDS011;25561;48.888;8.736;2023-04-25T14:26:30;11.55;;;5.28;;
34521;SDS011;25561;48.888;8.736;2023-04-25T14:29:32;8.25;;;5.65;;
34521;SDS011;25561;48.888;8.736;2023-04-25T14:32:34;6.10;;;4.30;;
34521;SDS011;25561;48.888;8.736;2023-04-25T14:35:37;9.85;;;4.00;;
34521;SDS011;25561;48.888;8.736;2023-04-25T14:38:39;6.55;;;3.67;;
34521;SDS011;25561;48.888;8.736;2023-04-25T14:41:41;6.28;;;3.40;;
34521;SDS011;25561;48.888;8.736;2023-04-25T14:44:42;7.53;;;4.65;;
34521;SDS011;25561;48.888;8.736;2023-04-25T14:47:45;12.63;;;5.20;;
34521;SDS011;25561;48.888;8.736;2023-04-25T14:50:47;7.82;;;4.55;;
34521;SDS011;25561;48.888;8.736;2023-04-25T14:53:49;6.72;;;4.07;;
34521;SDS011;25561;48.888;8.736;2023-04-25T14:56:52;9.75;;;4.38;;
34521;SDS011;25561;48.888;8.736;2023-04-25T14:59:54;6.22;;;4.05;;
34521;SDS011;25561;48.888;8.736;2023-04-25T15:02:56;9.35;;;5.53;;
34521;SDS011;25561;48.888;8.736;2023-04-25T15:05:59;10.88;;;5.72;;
34521;SDS011;25561;48.888;8.736;2023-04-25T15:09:00;10.23;;;5.53;;
34521;SDS011;25561;48.888;8.736;2023-04-25T15:12:02;9.02;;;5.68;;
34521;SDS011;25561;48.888;8.736;2023-04-25T15:15:05;12.45;;;6.82;;
34521;SDS011;25561;48.888;8.736;2023-04-25T15:18:07;12.05;;;5.90;;
34521;SDS011;25561;48.888;8.736;2023-04-25T15:21:09;13.60;;;6.07;;
34521;SDS011;25561;48.888;8.736;2023-04-25T15:24:11;13.55;;;6.18;;
34521;SDS011;25561;48.888;8.736;2023-04-25T15:27:15;10.85;;;6.05;;
34521;SDS011;25561;48.888;8.736;2023-04-25T15:30:18;13.30;;;5.20;;
34521;SDS011;25561;48.888;8.736;2023-04-25T15:33:20;10.13;;;5.63;;
34521;SDS011;25561;48.888;8.736;2023-04-25T15:36:22;10.65;;;5.85;;
34521;SDS011;25561;48.888;8.736;2023-04-25T15:39:24;17.48;;;5.40;;
34521;SDS011;25561;48.888;8.736;2023-04-25T15:42:26;10.80;;;4.43;;
34521;SDS011;25561;48.888;8.736;2023-04-25T15:45:28;12.45;;;5.35;;
34521;SDS011;25561;48.888;8.736;2023-04-25T15:48:32;9.30;;;5.53;;
34521;SDS011;25561;48.888;8.736;2023-04-25T15:51:34;8.05;;;5.35;;
34521;SDS011;25561;48.888;8.736;2023-04-25T15:54:36;8.95;;;4.57;;
34521;SDS011;25561;48.888;8.736;2023-04-25T15:57:37;8.95;;;4.80;;
